Time;durP1;ratioP1;P1;durP2;ratioP2;P2;SDS_P1;SDS_P2;PMS_P1;PMS_P2;Temp;Humidity;BMP_temperature;BMP_pressure;BME280_temperature;BME280_humidity;BME280_pressure;Samples;Min_cycle;Max_cycle;Signal;HPM_P1;HPM_P2
2022/05/04 00:01:09;;;;;;;19.73;13.82;;;;;11.60;96235.00;;;;8387525;28;20239;-71
2022/05/04 00:05:13;;;;;;;19.08;12.90;;;;;11.60;96234.00;;;;8367929;28;20235;-71
2022/05/04 00:09:16;;;;;;;22.85;13.40;;;;;11.60;96229.00;;;;8382686;28;20348;-71
2022/05/04 00:13:20;;;;;;;22.08;13.73;;;;;11.50;96231.00;;;;8381941;28;20335;-71
2022/05/04 00:17:23;;;;;;;21.30;13.00;;;;;11.40;96222.00;;;;8382743;28;20231;-73
2022/05/04 00:21:27;;;;;;;19.83;13.35;;;;;11.20;96222.00;;;;8379981;28;20268;-76
2022/05/04 00:25:30;;;;;;;22.20;13.68;;;;;11.00;96219.00;;;;8379475;28;20627;-73
2022/05/04 00:29:34;;;;;;;20.73;13.40;;;;;10.90;96222.00;;;;8379247;28;20315;-73
2022/05/04 00:33:38;;;;;;;24.20;14.00;;;;;10.70;96227.00;;;;8383727;28;20232;-72
2022/05/04 00:37:41;;;;;;;23.42;13.43;;;;;10.50;96219.00;;;;8375922;28;20245;-74
2022/05/04 00:41:45;;;;;;;26.95;15.35;;;;;10.40;96219.00;;;;8382231;28;20249;-70
2022/05/04 00:45:53;;;;;;;32.35;18.50;;;;;10.40;96222.00;;;;8380743;28;20302;-74
2022/05/04 00:49:57;;;;;;;33.17;17.75;;;;;10.60;96210.00;;;;8374588;28;20224;-71
2022/05/04 00:54:01;;;;;;;28.77;17.58;;;;;10.80;96215.00;;;;8375605;28;20312;-73
2022/05/04 01:02:27;;;;;;;29.55;17.95;;;;;10.90;96208.00;;;;8371152;28;20272;-73
2022/05/04 01:06:30;;;;;;;28.90;18.52;;;;;11.00;96209.00;;;;8374887;28;20235;-75
2022/05/04 01:10:33;;;;;;;27.85;17.58;;;;;11.10;96223.00;;;;8384463;28;20322;-69
2022/05/04 01:14:36;;;;;;;25.17;15.57;;;;;11.10;96227.00;;;;8383353;28;20227;-77
2022/05/04 01:18:41;;;;;;;26.80;16.80;;;;;11.10;96229.00;;;;8376676;28;20591;-72
2022/05/04 01:22:46;;;;;;;27.23;18.00;;;;;11.10;96228.00;;;;8385955;28;20229;-74
2022/05/04 01:26:49;;;;;;;29.15;19.48;;;;;11.30;96228.00;;;;8381468;28;20302;-75
2022/05/04 01:30:52;;;;;;;21.13;14.63;;;;;11.60;96230.00;;;;8381126;28;20228;-77
2022/05/04 01:34:55;;;;;;;21.10;14.48;;;;;11.70;96230.00;;;;8379880;28;20229;-75
2022/05/04 01:39:00;;;;;;;22.40;15.23;;;;;11.70;96236.00;;;;8390384;28;20710;-71
2022/05/04 01:43:03;;;;;;;19.00;13.95;;;;;11.60;96238.00;;;;8382322;28;20712;-72
2022/05/04 01:47:07;;;;;;;20.75;14.95;;;;;11.60;96239.00;;;;8374063;28;20265;-71
2022/05/04 01:51:10;;;;;;;20.92;13.68;;;;;11.60;96241.00;;;;8379271;28;20231;-71
2022/05/04 01:55:15;;;;;;;23.00;13.48;;;;;11.60;96248.00;;;;8379332;28;20228;-74
2022/05/04 01:59:18;;;;;;;21.35;14.10;;;;;11.60;96244.00;;;;8370605;28;20778;-73
2022/05/04 02:03:21;;;;;;;18.20;13.00;;;;;11.60;96254.00;;;;8376823;28;20256;-71
2022/05/04 02:07:25;;;;;;;20.45;13.95;;;;;11.50;96253.00;;;;8385665;28;20231;-72
2022/05/04 02:11:32;;;;;;;19.10;13.25;;;;;11.40;96263.00;;;;8396902;28;20230;-72
2022/05/04 02:15:35;;;;;;;23.23;13.60;;;;;11.30;96245.00;;;;8391738;28;20227;-75
2022/05/04 02:19:38;;;;;;;23.15;14.38;;;;;11.10;96257.00;;;;8390419;28;20583;-70
2022/05/04 02:23:41;;;;;;;18.38;12.90;;;;;11.00;96249.00;;;;8384265;28;20232;-72
2022/05/04 02:27:46;;;;;;;19.75;12.95;;;;;10.90;96254.00;;;;8383015;28;20231;-74
2022/05/04 02:31:49;;;;;;;20.17;12.60;;;;;10.80;96255.00;;;;8382395;28;20233;-74
2022/05/04 02:40:13;;;;;;;19.73;12.77;;;;;10.40;96260.00;;;;8380335;28;20255;-77
2022/05/04 02:44:18;;;;;;;20.92;13.10;;;;;10.20;96257.00;;;;8384024;28;20227;-72
2022/05/04 02:48:21;;;;;;;25.15;13.80;;;;;10.00;96254.00;;;;8389865;28;20224;-71
2022/05/04 02:52:25;;;;;;;23.02;13.93;;;;;9.90;96250.00;;;;8380392;28;20228;-71
2022/05/04 02:56:28;;;;;;;24.87;14.33;;;;;9.80;96249.00;;;;8366297;28;20245;-72
2022/05/04 03:00:32;;;;;;;29.37;16.20;;;;;9.70;96245.00;;;;8384911;28;20716;-72
2022/05/04 03:04:36;;;;;;;22.77;13.68;;;;;9.60;96239.00;;;;8416756;22;20232;-70
2022/05/04 03:08:39;;;;;;;23.57;14.37;;;;;9.40;96243.00;;;;8379645;28;20306;-73
2022/05/04 03:12:43;;;;;;;25.13;14.70;;;;;9.30;96242.00;;;;8388970;28;20215;-72
2022/05/04 03:16:48;;;;;;;29.40;15.80;;;;;9.20;96237.00;;;;8408735;28;20717;-73
2022/05/04 03:20:51;;;;;;;28.40;15.93;;;;;9.10;96235.00;;;;8392928;28;20227;-71
2022/05/04 03:24:54;;;;;;;30.17;16.37;;;;;9.00;96233.00;;;;8406861;28;20268;-72
2022/05/04 03:28:57;;;;;;;37.67;19.10;;;;;9.10;96237.00;;;;8395278;28;20227;-72
2022/05/04 03:33:02;;;;;;;33.53;18.65;;;;;9.10;96230.00;;;;8399327;28;20223;-72
2022/05/04 03:37:06;;;;;;;36.83;18.17;;;;;9.10;96228.00;;;;8384404;28;20667;-74
2022/05/04 03:41:09;;;;;;;43.40;21.77;;;;;9.20;96239.00;;;;8394058;28;20284;-71
2022/05/04 03:45:13;;;;;;;37.63;18.50;;;;;9.30;96237.00;;;;8398001;28;20223;-77
2022/05/04 03:49:18;;;;;;;33.40;17.10;;;;;9.40;96235.00;;;;8402989;28;20223;-73
2022/05/04 03:53:21;;;;;;;33.53;17.43;;;;;9.40;96238.00;;;;8393071;28;20693;-76
2022/05/04 03:57:25;;;;;;;34.10;18.60;;;;;9.40;96234.00;;;;8401402;28;20977;-75
2022/05/04 04:01:28;;;;;;;36.83;19.30;;;;;9.40;96237.00;;;;8392124;28;20260;-76
2022/05/04 04:05:32;;;;;;;38.80;19.87;;;;;9.50;96239.00;;;;8396485;28;20223;-71
2022/05/04 04:09:36;;;;;;;39.43;19.20;;;;;9.60;96244.00;;;;8389137;28;20263;-70
2022/05/04 04:13:39;;;;;;;35.07;17.73;;;;;9.70;96241.00;;;;8394466;28;20224;-73
2022/05/04 04:17:42;;;;;;;33.43;18.03;;;;;9.70;96238.00;;;;8379830;28;20240;-76
2022/05/04 04:21:54;;;;;;;37.17;18.67;;;;;9.80;96236.00;;;;8365647;28;20219;-72
2022/05/04 04:25:58;;;;;;;38.93;20.00;;;;;9.90;96237.00;;;;8376052;28;20322;-74
2022/05/04 04:30:01;;;;;;;34.03;18.73;;;;;10.00;96242.00;;;;8376735;28;20698;-74
2022/05/04 04:34:06;;;;;;;33.25;18.50;;;;;10.10;96243.00;;;;8369824;28;20216;-71
2022/05/04 04:38:16;;;;;;;31.03;16.83;;;;;10.10;96241.00;;;;8372307;28;20287;-71
2022/05/04 04:42:19;;;;;;;28.45;16.85;;;;;10.20;96252.00;;;;8369027;28;20423;-74
2022/05/04 04:46:23;;;;;;;28.27;16.42;;;;;10.20;96249.00;;;;8376924;28;20232;-71
2022/05/04 04:50:26;;;;;;;27.37;15.20;;;;;10.20;96248.00;;;;8379267;28;20231;-75
2022/05/04 04:54:31;;;;;;;24.52;15.63;;;;;10.30;96249.00;;;;8373127;28;20987;-74
2022/05/04 04:58:34;;;;;;;33.13;17.42;;;;;10.20;96254.00;;;;8377424;28;20236;-73
2022/05/04 05:02:37;;;;;;;26.15;15.30;;;;;10.20;96252.00;;;;8372402;28;20238;-73
2022/05/04 05:06:40;;;;;;;23.77;15.13;;;;;10.20;96256.00;;;;8388514;28;20229;-73
2022/05/04 05:10:45;;;;;;;35.87;17.23;;;;;10.30;96259.00;;;;8383642;28;20212;-73
2022/05/04 05:19:15;;;;;;;26.20;15.90;;;;;10.60;96268.00;;;;8344435;28;20220;-74
2022/05/04 05:23:19;;;;;;;24.27;15.73;;;;;10.90;96249.00;;;;8369952;28;20227;-73
2022/05/04 05:27:24;;;;;;;23.88;15.52;;;;;11.10;96260.00;;;;8372463;28;20763;-77
2022/05/04 05:31:27;;;;;;;26.02;17.00;;;;;11.40;96265.00;;;;8377293;28;20600;-73
2022/05/04 05:35:30;;;;;;;25.02;17.13;;;;;11.70;96262.00;;;;8372700;28;20228;-73
2022/05/04 05:39:34;;;;;;;26.90;16.83;;;;;11.80;96269.00;;;;8376685;28;20225;-73
2022/05/04 05:43:39;;;;;;;26.38;16.38;;;;;12.00;96267.00;;;;8367483;28;20230;-71
2022/05/04 05:47:42;;;;;;;30.00;16.52;;;;;12.10;96282.00;;;;8375761;28;20234;-75
2022/05/04 05:51:45;;;;;;;25.73;16.40;;;;;12.30;96274.00;;;;8368727;28;20249;-71
2022/05/04 05:55:48;;;;;;;27.13;17.50;;;;;12.50;96270.00;;;;8371232;28;20320;-73
2022/05/04 05:59:53;;;;;;;24.85;16.67;;;;;12.70;96273.00;;;;8375457;28;20581;-72
2022/05/04 06:03:57;;;;;;;24.63;15.98;;;;;12.80;96288.00;;;;8408719;28;20274;-73
2022/05/04 06:08:00;;;;;;;23.05;15.68;;;;;13.00;96290.00;;;;8446419;28;20242;-72
2022/05/04 06:12:05;;;;;;;20.90;14.48;;;;;13.00;96292.00;;;;8447566;28;20256;-75
2022/05/04 06:16:10;;;;;;;23.23;15.98;;;;;13.20;96289.00;;;;8443732;28;20598;-73
2022/05/04 06:20:13;;;;;;;24.30;14.70;;;;;13.40;96291.00;;;;8442433;28;20220;-73
2022/05/04 06:24:16;;;;;;;24.70;15.57;;;;;13.70;96291.00;;;;8439701;27;20223;-71
2022/05/04 06:28:19;;;;;;;19.10;14.75;;;;;14.00;96297.00;;;;8446692;27;20316;-73
2022/05/04 06:36:44;;;;;;;18.95;14.10;;;;;15.20;96311.00;;;;8447315;28;20720;-69
2022/05/04 06:40:47;;;;;;;19.35;14.35;;;;;15.60;96311.00;;;;8442287;28;20233;-71
2022/05/04 06:44:50;;;;;;;19.13;14.27;;;;;15.90;96312.00;;;;8445387;28;20227;-72
2022/05/04 06:48:55;;;;;;;18.67;13.63;;;;;16.30;96318.00;;;;8446420;28;20667;-73
2022/05/04 06:52:58;;;;;;;19.52;13.73;;;;;16.70;96320.00;;;;8447415;27;20225;-73
2022/05/04 06:57:01;;;;;;;16.92;12.90;;;;;17.10;96325.00;;;;8460555;27;20236;-69
2022/05/04 07:01:05;;;;;;;18.55;12.75;;;;;17.50;96324.00;;;;8452643;27;20221;-75
2022/05/04 07:05:10;;;;;;;15.32;12.23;;;;;17.80;96325.00;;;;8455328;27;20357;-73
2022/05/04 07:09:13;;;;;;;12.23;10.32;;;;;18.20;96326.00;;;;8455187;27;20230;-70
2022/05/04 07:13:17;;;;;;;16.17;9.98;;;;;18.50;96329.00;;;;8454812;27;20232;-73
2022/05/04 07:17:20;;;;;;;14.00;8.95;;;;;18.70;96324.00;;;;8452283;27;20229;-71
2022/05/04 07:21:25;;;;;;;12.63;9.27;;;;;18.80;96328.00;;;;8464524;27;20309;-73
2022/05/04 07:25:28;;;;;;;12.35;8.95;;;;;19.30;96329.00;;;;8453647;27;20227;-73
2022/05/04 07:29:31;;;;;;;12.05;8.65;;;;;20.20;96325.00;;;;8440421;28;20687;-75
2022/05/04 07:33:35;;;;;;;10.57;8.68;;;;;20.50;96326.00;;;;8453631;27;20227;-71
2022/05/04 07:37:42;;;;;;;13.57;8.13;;;;;20.50;96317.00;;;;8438921;27;20245;-72
2022/05/04 07:46:06;;;;;;;9.73;7.63;;;;;21.10;96328.00;;;;8443990;27;20230;-74
2022/05/04 07:50:12;;;;;;;9.07;8.10;;;;;21.20;96331.00;;;;8446836;27;20325;-73
2022/05/04 07:54:16;;;;;;;9.63;8.13;;;;;21.30;96336.00;;;;8444381;27;20223;-69
2022/05/04 07:58:19;;;;;;;12.48;8.43;;;;;21.50;96344.00;;;;8448947;27;20218;-72
2022/05/04 08:06:48;;;;;;;13.38;8.70;;;;;21.60;96350.00;;;;8448173;27;20227;-75
2022/05/04 08:10:53;;;;;;;15.30;8.48;;;;;21.40;96347.00;;;;8443170;27;20240;-74
2022/05/04 08:14:56;;;;;;;11.93;8.27;;;;;21.20;96352.00;;;;8444764;27;20218;-68
2022/05/04 08:19:00;;;;;;;11.77;8.65;;;;;20.80;96354.00;;;;8445568;27;20729;-73
2022/05/04 08:23:04;;;;;;;9.70;8.20;;;;;20.40;96363.00;;;;8448441;27;20256;-71
2022/05/04 08:27:08;;;;;;;9.93;8.07;;;;;20.30;96361.00;;;;8444268;27;20408;-74
2022/05/04 08:31:11;;;;;;;10.93;8.10;;;;;20.00;96364.00;;;;8440510;27;20240;-72
2022/05/04 08:35:15;;;;;;;8.88;7.70;;;;;19.90;96365.00;;;;8451689;27;20336;-72
2022/05/04 08:39:18;;;;;;;13.90;7.97;;;;;19.60;96368.00;;;;8454130;27;20321;-71
2022/05/04 08:43:24;;;;;;;11.43;8.32;;;;;18.70;96365.00;;;;8451463;27;20222;-65
2022/05/04 08:47:32;;;;;;;16.17;10.00;;;;;17.80;96371.00;;;;8453698;27;20679;-63
2022/05/04 08:51:37;;;;;;;15.43;9.85;;;;;17.40;96371.00;;;;8450252;27;20323;-63
2022/05/04 08:55:41;;;;;;;20.63;10.07;;;;;17.10;96361.00;;;;8454385;27;20301;-64
2022/05/04 08:59:53;;;;;;;20.02;10.60;;;;;16.90;96365.00;;;;8445028;27;20650;-65
2022/05/04 09:03:59;;;;;;;19.75;10.82;;;;;16.80;96366.00;;;;8438116;27;20279;-67
2022/05/04 09:08:03;;;;;;;17.38;10.73;;;;;16.70;96364.00;;;;8447456;27;20241;-69
2022/05/04 09:12:07;;;;;;;15.80;10.60;;;;;16.80;96363.00;;;;8439448;27;20223;-69
2022/05/04 09:16:25;;;;;;;13.38;10.35;;;;;16.80;96371.00;;;;8447537;27;20216;-69
2022/05/04 09:20:47;;;;;;;19.02;9.93;;;;;16.70;96368.00;;;;8451145;27;20222;-69
2022/05/04 09:24:51;;;;;;;11.18;9.02;;;;;16.60;96362.00;;;;8456689;27;20218;-70
2022/05/04 09:28:59;;;;;;;11.18;8.95;;;;;16.80;96362.00;;;;8427775;27;20701;-73
2022/05/04 09:33:09;;;;;;;11.00;8.43;;;;;17.10;96366.00;;;;8442217;27;20232;-78
2022/05/04 09:45:57;;;;;;;12.02;8.45;;;;;19.70;96356.00;;;;8437087;28;20238;-71
2022/05/04 09:50:04;;;;;;;8.27;7.38;;;;;21.20;96348.00;;;;8442554;28;20230;-69
2022/05/04 09:54:16;;;;;;;9.30;7.80;;;;;22.00;96340.00;;;;8455219;28;20227;-71
2022/05/04 09:58:19;;;;;;;10.88;7.68;;;;;22.40;96346.00;;;;8433641;28;20226;-71
2022/05/04 10:02:22;;;;;;;9.18;7.32;;;;;23.40;96337.00;;;;8444830;28;20230;-70
2022/05/04 10:06:29;;;;;;;8.52;7.03;;;;;24.60;96345.00;;;;8437510;28;20276;-72
2022/05/04 10:10:33;;;;;;;9.52;6.70;;;;;25.40;96338.00;;;;8440322;28;21079;-71
2022/05/04 10:14:36;;;;;;;8.98;7.32;;;;;25.60;96329.00;;;;8443672;28;20220;-72
2022/05/04 10:18:41;;;;;;;8.15;7.15;;;;;26.60;96330.00;;;;8440216;28;21629;-75
2022/05/04 10:23:01;;;;;;;11.20;7.03;;;;;26.90;96316.00;;;;8438197;28;20898;-72
2022/05/04 10:27:18;;;;;;;7.15;6.45;;;;;26.10;96326.00;;;;8435637;28;20264;-71
2022/05/04 10:31:21;;;;;;;10.85;6.43;;;;;25.40;96323.00;;;;8441303;27;20253;-74
2022/05/04 10:35:42;;;;;;;7.32;6.38;;;;;25.00;96302.00;;;;8446627;28;20222;-74
2022/05/04 10:40:06;;;;;;;6.95;6.25;;;;;24.00;96297.00;;;;8443821;28;20322;-73
2022/05/04 10:44:10;;;;;;;5.20;4.47;;;;;23.20;96285.00;;;;8440774;28;20570;-75
2022/05/04 10:48:15;;;;;;;12.68;6.35;;;;;22.60;96292.00;;;;8449570;27;20214;-74
2022/05/04 10:52:18;;;;;;;5.40;4.90;;;;;22.30;96280.00;;;;8432017;27;20232;-74
2022/05/04 10:56:24;;;;;;;7.50;4.72;;;;;22.00;96275.00;;;;8448349;27;20306;-70
2022/05/04 11:00:28;;;;;;;6.05;5.45;;;;;21.70;96273.00;;;;8441878;27;20245;-64
2022/05/04 11:04:31;;;;;;;9.68;5.88;;;;;20.60;96281.00;;;;8450899;27;20235;-63
2022/05/04 11:08:36;;;;;;;8.18;7.07;;;;;19.90;96267.00;;;;8454738;27;20229;-64
2022/05/04 11:12:42;;;;;;;11.88;7.82;;;;;19.20;96269.00;;;;8449827;28;20299;-64
2022/05/04 11:16:46;;;;;;;9.23;8.18;;;;;18.90;96264.00;;;;8446728;27;21394;-64
2022/05/04 11:20:51;;;;;;;10.43;8.43;;;;;18.80;96264.00;;;;8444132;27;20256;-63
2022/05/04 11:24:57;;;;;;;11.90;8.13;;;;;18.80;96266.00;;;;8452954;27;20253;-63
2022/05/04 11:29:07;;;;;;;12.82;8.77;;;;;18.60;96268.00;;;;8448777;27;20240;-65
2022/05/04 11:33:14;;;;;;;13.18;8.18;;;;;18.50;96261.00;;;;8446539;28;20225;-63
2022/05/04 11:37:17;;;;;;;13.57;8.57;;;;;17.80;96257.00;;;;8445064;27;20313;-67
2022/05/04 11:41:21;;;;;;;29.67;6.53;;;;;16.80;96260.00;;;;8449111;27;20238;-68
2022/05/04 11:45:26;;;;;;;11.05;6.13;;;;;16.20;96251.00;;;;8448823;27;20228;-64
2022/05/04 11:49:30;;;;;;;12.18;6.68;;;;;16.30;96246.00;;;;8445194;28;20229;-63
2022/05/04 11:53:34;;;;;;;6.82;4.07;;;;;16.60;96245.00;;;;8451357;27;20614;-63
2022/05/04 11:57:41;;;;;;;10.00;5.63;;;;;16.70;96238.00;;;;8450705;27;20223;-63
2022/05/04 12:01:47;;;;;;;14.48;6.95;;;;;16.70;96246.00;;;;8444934;27;20265;-63
2022/05/04 12:05:51;;;;;;;13.18;7.13;;;;;16.70;96241.00;;;;8436779;28;20541;-65
2022/05/04 12:09:54;;;;;;;12.48;7.50;;;;;17.00;96247.00;;;;8443916;27;20246;-68
2022/05/04 12:13:58;;;;;;;13.10;7.28;;;;;17.20;96240.00;;;;8445967;28;20821;-65
2022/05/04 12:18:05;;;;;;;11.18;6.47;;;;;17.40;96240.00;;;;8444675;28;20256;-68
2022/05/04 12:22:09;;;;;;;11.45;5.35;;;;;17.40;96241.00;;;;8444869;28;20246;-67
2022/05/04 12:26:14;;;;;;;11.25;6.95;;;;;17.70;96236.00;;;;8443272;28;20223;-68
2022/05/04 12:34:44;;;;;;;7.05;3.63;;;;;16.60;96217.00;;;;8441302;28;20218;-68
2022/05/04 12:38:49;;;;;;;5.95;3.92;;;;;16.50;96207.00;;;;8436493;28;20682;-69
2022/05/04 12:42:53;;;;;;;7.45;5.75;;;;;16.70;96212.00;;;;8428316;28;20226;-68
2022/05/04 12:46:57;;;;;;;8.52;7.05;;;;;17.10;96200.00;;;;8437023;28;20313;-70
2022/05/04 12:51:01;;;;;;;10.35;7.75;;;;;17.70;96205.00;;;;8441061;28;20214;-69
2022/05/04 12:55:06;;;;;;;14.30;7.47;;;;;18.00;96197.00;;;;8446421;28;20655;-69
2022/05/04 12:59:09;;;;;;;10.93;7.00;;;;;18.10;96200.00;;;;8427612;27;20233;-67
2022/05/04 13:03:12;;;;;;;14.15;7.75;;;;;18.70;96202.00;;;;8426816;27;20228;-68
2022/05/04 13:07:17;;;;;;;16.83;10.13;;;;;19.00;96204.00;;;;8443305;28;20306;-68
2022/05/04 13:11:22;;;;;;;13.70;8.07;;;;;19.20;96204.00;;;;8431181;28;20305;-69
2022/05/04 13:15:25;;;;;;;12.57;6.60;;;;;19.80;96201.00;;;;8435230;28;20318;-70
2022/05/04 13:19:29;;;;;;;8.13;6.85;;;;;20.20;96195.00;;;;8438439;28;21746;-71
2022/05/04 13:23:35;;;;;;;9.77;6.10;;;;;20.70;96182.00;;;;8426865;28;20235;-69
2022/05/04 13:27:39;;;;;;;5.85;5.35;;;;;21.20;96184.00;;;;8428873;28;20565;-74
2022/05/04 13:31:42;;;;;;;5.60;4.05;;;;;21.70;96174.00;;;;8430053;28;20266;-74
2022/05/04 13:35:45;;;;;;;3.40;3.20;;;;;22.30;96177.00;;;;8441057;28;20226;-72
2022/05/04 13:39:50;;;;;;;4.63;2.83;;;;;22.80;96174.00;;;;8439446;28;20258;-75
2022/05/04 13:43:53;;;;;;;4.57;2.53;;;;;23.40;96180.00;;;;8438175;28;20227;-76
2022/05/04 13:47:56;;;;;;;4.85;2.70;;;;;24.40;96188.00;;;;8418390;28;20305;-76
2022/05/04 13:56:21;;;;;;;3.30;3.10;;;;;24.20;96190.00;;;;8437105;28;20672;-78
2022/05/04 14:00:24;;;;;;;3.42;2.95;;;;;23.90;96196.00;;;;8440957;28;20317;-79
2022/05/04 14:04:28;;;;;;;4.25;2.70;;;;;23.70;96190.00;;;;8439731;28;20687;-75
2022/05/04 14:08:36;;;;;;;3.85;2.88;;;;;23.70;96192.00;;;;8442539;28;20230;-76
2022/05/04 14:12:40;;;;;;;2.65;2.47;;;;;23.60;96198.00;;;;8448311;28;20230;-75
2022/05/04 14:16:43;;;;;;;3.40;2.40;;;;;23.60;96179.00;;;;8433145;28;20235;-76
2022/05/04 14:20:47;;;;;;;3.55;3.15;;;;;23.60;96167.00;;;;8438660;28;20222;-75
2022/05/04 14:24:51;;;;;;;6.65;3.70;;;;;23.40;96171.00;;;;8437117;28;20682;-75
2022/05/04 14:28:56;;;;;;;4.28;3.33;;;;;23.30;96168.00;;;;8447786;28;20642;-81
2022/05/04 14:32:59;;;;;;;3.17;2.55;;;;;23.90;96171.00;;;;8447255;27;20309;-75
2022/05/04 14:37:02;;;;;;;7.60;2.83;;;;;23.90;96185.00;;;;8452909;27;20318;-75
2022/05/04 14:41:06;;;;;;;4.38;3.35;;;;;24.20;96176.00;;;;8442896;28;20228;-75
2022/05/04 14:45:11;;;;;;;2.70;2.50;;;;;24.40;96180.00;;;;8434968;28;20219;-74
2022/05/04 14:49:15;;;;;;;3.80;2.92;;;;;24.10;96182.00;;;;8449196;28;20230;-73
2022/05/04 14:53:18;;;;;;;7.57;4.93;;;;;23.30;96200.00;;;;8439477;28;20336;-75
2022/05/04 14:57:22;;;;;;;6.20;3.17;;;;;22.10;96211.00;;;;8450453;28;20621;-72
2022/05/04 15:01:26;;;;;;;3.67;2.95;;;;;20.50;96218.00;;;;8443221;28;20684;-72
2022/05/04 15:05:30;;;;;;;5.90;3.60;;;;;19.80;96227.00;;;;8443992;27;20298;-72
2022/05/04 15:09:33;;;;;;;3.72;3.40;;;;;19.10;96242.00;;;;8443221;27;20234;-72
2022/05/04 15:13:36;;;;;;;4.45;4.05;;;;;18.60;96254.00;;;;8442794;27;20321;-71
2022/05/04 15:17:41;;;;;;;12.05;4.28;;;;;18.10;96254.00;;;;8439423;28;20234;-67
2022/05/04 15:21:44;;;;;;;8.93;4.65;;;;;16.20;96249.00;;;;8440831;28;20750;-75
2022/05/04 15:25:47;;;;;;;13.27;4.70;;;;;15.30;96261.00;;;;8443171;28;20233;-69
2022/05/04 15:29:50;;;;;;;8.90;4.78;;;;;14.90;96256.00;;;;8439428;28;20226;-68
2022/05/04 15:33:55;;;;;;;8.45;4.45;;;;;14.60;96264.00;;;;8435727;27;20840;-66
2022/05/04 15:37:59;;;;;;;14.25;5.72;;;;;14.30;96266.00;;;;8432096;28;20248;-68
2022/05/04 15:42:02;;;;;;;14.07;5.40;;;;;14.20;96264.00;;;;8432590;27;20230;-70
2022/05/04 15:46:05;;;;;;;16.20;7.32;;;;;14.20;96266.00;;;;8441146;28;20309;-68
2022/05/04 15:50:10;;;;;;;16.23;7.05;;;;;14.30;96270.00;;;;8430736;28;20237;-69
2022/05/04 15:54:13;;;;;;;24.90;10.10;;;;;14.30;96261.00;;;;8439760;28;20261;-69
2022/05/04 15:58:16;;;;;;;15.00;6.53;;;;;14.30;96242.00;;;;8440733;28;20669;-74
2022/05/04 16:02:19;;;;;;;18.42;7.18;;;;;14.20;96227.00;;;;8435568;28;20233;-69
2022/05/04 16:06:24;;;;;;;12.27;6.20;;;;;14.20;96233.00;;;;8440049;28;20626;-69
2022/05/04 16:10:27;;;;;;;10.77;5.82;;;;;14.10;96244.00;;;;8443955;27;20580;-68
2022/05/04 16:14:31;;;;;;;13.15;6.85;;;;;14.00;96239.00;;;;8442295;28;20234;-70
2022/05/04 16:22:55;;;;;;;12.32;5.75;;;;;14.10;96223.00;;;;8432595;28;21011;-67
2022/05/04 16:27:00;;;;;;;12.27;6.22;;;;;14.10;96212.00;;;;8435672;28;20230;-67
2022/05/04 16:31:03;;;;;;;9.45;6.00;;;;;14.20;96195.00;;;;8443189;28;20619;-69
2022/05/04 16:35:07;;;;;;;9.52;4.90;;;;;14.20;96189.00;;;;8438296;28;20217;-67
2022/05/04 16:39:27;;;;;;;8.23;5.15;;;;;14.20;96186.00;;;;8440622;28;20234;-68
2022/05/04 16:43:30;;;;;;;8.13;5.05;;;;;14.20;96188.00;;;;8440534;28;20276;-68
2022/05/04 16:47:33;;;;;;;10.15;5.47;;;;;14.30;96185.00;;;;8440801;28;20425;-67
2022/05/04 16:51:36;;;;;;;10.68;4.93;;;;;14.30;96181.00;;;;8442039;28;20308;-68
2022/05/04 16:55:41;;;;;;;7.82;5.50;;;;;14.30;96187.00;;;;8441466;28;20867;-70
2022/05/04 16:59:44;;;;;;;11.15;5.88;;;;;14.40;96193.00;;;;8441475;27;20231;-68
2022/05/04 17:03:48;;;;;;;10.75;6.00;;;;;14.50;96192.00;;;;8423891;27;20244;-70
2022/05/04 17:07:51;;;;;;;8.90;6.10;;;;;14.60;96198.00;;;;8439379;28;20223;-69
2022/05/04 17:11:57;;;;;;;7.00;5.30;;;;;14.80;96194.00;;;;8434026;28;20762;-70
2022/05/04 17:16:00;;;;;;;12.63;6.38;;;;;15.00;96191.00;;;;8442193;28;20325;-67
2022/05/04 17:20:04;;;;;;;11.13;5.55;;;;;15.20;96188.00;;;;8443235;28;20229;-68
2022/05/04 17:24:09;;;;;;;8.05;5.55;;;;;15.60;96198.00;;;;8442177;28;20233;-70
2022/05/04 17:28:13;;;;;;;6.35;4.55;;;;;16.10;96196.00;;;;8434813;28;20720;-71
2022/05/04 17:36:46;;;;;;;5.35;4.82;;;;;17.40;96203.00;;;;8433405;28;21278;-72
2022/05/04 17:40:50;;;;;;;6.75;4.65;;;;;17.90;96196.00;;;;8442200;28;20234;-71
2022/05/04 17:44:55;;;;;;;4.25;3.85;;;;;17.70;96193.00;;;;8440322;28;20226;-70
2022/05/04 17:48:58;;;;;;;24.92;9.63;;;;;17.30;96191.00;;;;8440013;28;20215;-71
2022/05/04 17:53:01;;;;;;;15.68;8.85;;;;;17.00;96189.00;;;;8440600;28;21737;-68
2022/05/04 17:57:05;;;;;;;9.55;6.70;;;;;16.60;96194.00;;;;8440669;28;20225;-69
2022/05/04 18:01:10;;;;;;;8.63;6.30;;;;;16.30;96188.00;;;;8434579;28;20739;-72
2022/05/04 18:05:13;;;;;;;11.98;6.05;;;;;15.90;96187.00;;;;8431595;28;20275;-71
2022/05/04 18:09:16;;;;;;;11.63;6.00;;;;;15.60;96194.00;;;;8434512;28;20221;-68
2022/05/04 18:13:20;;;;;;;11.63;6.40;;;;;15.40;96198.00;;;;8432657;28;20223;-74
2022/05/04 18:17:24;;;;;;;10.02;5.90;;;;;15.10;96194.00;;;;8435774;28;20659;-73
2022/05/04 18:21:27;;;;;;;8.75;5.35;;;;;14.80;96199.00;;;;8435640;28;20235;-70
2022/05/04 18:25:31;;;;;;;8.88;5.68;;;;;14.50;96200.00;;;;8440448;28;20310;-69
2022/05/04 18:29:34;;;;;;;7.60;5.07;;;;;14.30;96204.00;;;;8431697;28;20825;-74
2022/05/04 18:33:38;;;;;;;5.10;4.32;;;;;14.00;96216.00;;;;8429343;28;20254;-73
2022/05/04 18:37:41;;;;;;;6.50;5.35;;;;;13.80;96217.00;;;;8426563;28;20703;-73
2022/05/04 18:41:45;;;;;;;9.57;6.57;;;;;13.60;96209.00;;;;8442466;28;20268;-73
2022/05/04 18:45:49;;;;;;;6.20;5.05;;;;;13.30;96209.00;;;;8421851;27;20268;-73
2022/05/04 18:49:54;;;;;;;9.48;5.25;;;;;13.10;96206.00;;;;8443512;27;20222;-75
2022/05/04 18:53:57;;;;;;;8.25;5.53;;;;;12.80;96206.00;;;;8444774;27;20697;-74
2022/05/04 18:58:01;;;;;;;11.40;6.03;;;;;12.60;96201.00;;;;8447575;27;20233;-72
2022/05/04 19:02:04;;;;;;;11.32;6.82;;;;;12.50;96215.00;;;;8441965;27;20319;-76
2022/05/04 19:06:09;;;;;;;10.27;6.53;;;;;12.30;96220.00;;;;8434710;28;20320;-74
2022/05/04 19:10:14;;;;;;;10.63;6.97;;;;;12.20;96215.00;;;;8448012;28;20229;-75
2022/05/04 19:14:17;;;;;;;16.45;7.65;;;;;12.10;96228.00;;;;8443295;28;20232;-75
2022/05/04 19:18:21;;;;;;;16.88;8.35;;;;;12.10;96234.00;;;;8445214;28;20773;-73
2022/05/04 19:22:29;;;;;;;11.15;7.63;;;;;12.10;96237.00;;;;8446842;27;20220;-74
2022/05/04 19:26:32;;;;;;;11.40;8.02;;;;;12.10;96248.00;;;;8446415;27;20317;-73
2022/05/04 19:30:35;;;;;;;12.57;7.80;;;;;12.10;96263.00;;;;8445246;28;20232;-76
2022/05/04 19:34:39;;;;;;;11.98;7.95;;;;;12.10;96264.00;;;;8446834;28;20223;-73
2022/05/04 19:38:43;;;;;;;12.25;6.97;;;;;12.10;96275.00;;;;8447414;28;20658;-73
2022/05/04 19:42:46;;;;;;;11.38;6.68;;;;;12.20;96286.00;;;;8445204;28;20233;-73
2022/05/04 19:46:50;;;;;;;16.58;8.32;;;;;12.20;96288.00;;;;8441763;28;20211;-74
2022/05/04 19:50:53;;;;;;;12.02;7.32;;;;;12.20;96305.00;;;;8445199;28;20302;-72
2022/05/04 19:54:58;;;;;;;9.75;6.57;;;;;12.20;96311.00;;;;8442050;28;20307;-74
2022/05/04 19:59:03;;;;;;;12.85;7.25;;;;;12.20;96322.00;;;;8439642;28;20347;-74
2022/05/04 20:03:06;;;;;;;12.18;7.40;;;;;12.20;96322.00;;;;8446991;28;20318;-74
2022/05/04 20:07:09;;;;;;;15.57;7.80;;;;;12.20;96317.00;;;;8441011;28;20343;-73
2022/05/04 20:11:14;;;;;;;22.65;8.48;;;;;12.20;96326.00;;;;8447318;28;20324;-71
2022/05/04 20:15:17;;;;;;;49.25;8.65;;;;;12.30;96320.00;;;;8443436;28;20223;-72
2022/05/04 20:19:21;;;;;;;18.65;8.52;;;;;12.20;96326.00;;;;8439492;28;20225;-73
2022/05/04 20:23:24;;;;;;;12.10;7.63;;;;;12.30;96323.00;;;;8441834;27;20606;-73
2022/05/04 20:27:29;;;;;;;17.83;9.23;;;;;12.30;96327.00;;;;8442671;28;20253;-74
2022/05/04 20:31:32;;;;;;;14.57;7.20;;;;;12.40;96333.00;;;;8442651;27;20226;-75
2022/05/04 20:35:56;;;;;;;22.38;10.43;;;;;12.50;96325.00;;;;8442567;28;20291;-74
2022/05/04 20:39:59;;;;;;;17.67;9.88;;;;;12.60;96320.00;;;;8445911;28;20224;-73
2022/05/04 20:44:04;;;;;;;15.98;9.35;;;;;12.60;96326.00;;;;8439997;28;20238;-74
2022/05/04 20:48:08;;;;;;;16.77;9.88;;;;;12.70;96312.00;;;;8440146;27;20213;-72
2022/05/04 20:52:13;;;;;;;21.83;11.15;;;;;12.80;96321.00;;;;8434783;27;20221;-74
2022/05/04 20:56:16;;;;;;;17.55;8.73;;;;;12.80;96326.00;;;;8440740;28;20220;-74
2022/05/04 21:00:21;;;;;;;25.88;12.05;;;;;12.80;96324.00;;;;8439928;27;20577;-73